sensor_id;sensor_type;location;lat;lon;timestamp;temperature;humidity
18781;DHT22;9519;51.890;8.970;2022-11-12T00:04:42;7.50;96.00
18781;DHT22;9519;51.890;8.970;2022-11-12T00:09:44;7.40;96.10
18781;DHT22;9519;51.890;8.970;2022-11-12T00:14:46;7.40;96.20
18781;DHT22;9519;51.890;8.970;2022-11-12T00:19:49;7.40;96.20
18781;DHT22;9519;51.890;8.970;2022-11-12T00:24:51;7.30;96.30
18781;DHT22;9519;51.890;8.970;2022-11-12T00:29:53;7.20;96.30
18781;DHT22;9519;51.890;8.970;2022-11-12T00:34:57;7.30;96.40
18781;DHT22;9519;51.890;8.970;2022-11-12T00:39:59;7.30;96.50
18781;DHT22;9519;51.890;8.970;2022-11-12T00:45:01;7.30;96.60
18781;DHT22;9519;51.890;8.970;2022-11-12T00:50:08;7.20;96.60
18781;DHT22;9519;51.890;8.970;2022-11-12T00:55:12;7.10;96.70
18781;DHT22;9519;51.890;8.970;2022-11-12T01:00:15;7.20;96.80
18781;DHT22;9519;51.890;8.970;2022-11-12T01:05:20;7.10;96.90
18781;DHT22;9519;51.890;8.970;2022-11-12T01:10:22;7.10;97.00
18781;DHT22;9519;51.890;8.970;2022-11-12T01:15:24;7.10;97.10
18781;DHT22;9519;51.890;8.970;2022-11-12T01:20:27;7.00;97.10
18781;DHT22;9519;51.890;8.970;2022-11-12T01:25:29;7.00;97.20
18781;DHT22;9519;51.890;8.970;2022-11-12T01:30:32;6.90;97.20
18781;DHT22;9519;51.890;8.970;2022-11-12T01:35:35;6.90;97.30
18781;DHT22;9519;51.890;8.970;2022-11-12T01:40:37;6.90;97.40
18781;DHT22;9519;51.890;8.970;2022-11-12T01:45:43;6.90;97.50
18781;DHT22;9519;51.890;8.970;2022-11-12T01:50:51;6.90;97.60
18781;DHT22;9519;51.890;8.970;2022-11-12T01:55:55;6.80;97.60
18781;DHT22;9519;51.890;8.970;2022-11-12T02:00:59;6.80;97.70
18781;DHT22;9519;51.890;8.970;2022-11-12T02:06:08;6.90;97.80
18781;DHT22;9519;51.890;8.970;2022-11-12T02:11:15;6.80;97.90
18781;DHT22;9519;51.890;8.970;2022-11-12T02:16:19;6.80;97.90
18781;DHT22;9519;51.890;8.970;2022-11-12T02:21:23;6.80;98.00
18781;DHT22;9519;51.890;8.970;2022-11-12T02:26:29;6.80;98.10
18781;DHT22;9519;51.890;8.970;2022-11-12T02:31:34;6.70;98.10
18781;DHT22;9519;51.890;8.970;2022-11-12T02:36:38;6.80;98.10
18781;DHT22;9519;51.890;8.970;2022-11-12T02:41:40;6.70;98.20
18781;DHT22;9519;51.890;8.970;2022-11-12T02:46:42;6.70;98.30
18781;DHT22;9519;51.890;8.970;2022-11-12T02:51:45;6.70;98.30
18781;DHT22;9519;51.890;8.970;2022-11-12T02:56:47;6.70;98.30
18781;DHT22;9519;51.890;8.970;2022-11-12T03:01:49;6.60;98.40
18781;DHT22;9519;51.890;8.970;2022-11-12T03:06:53;6.60;98.40
18781;DHT22;9519;51.890;8.970;2022-11-12T03:11:55;6.60;98.40
18781;DHT22;9519;51.890;8.970;2022-11-12T03:16:57;6.50;98.50
18781;DHT22;9519;51.890;8.970;2022-11-12T03:22:00;6.50;98.50
18781;DHT22;9519;51.890;8.970;2022-11-12T03:27:02;6.40;98.70
18781;DHT22;9519;51.890;8.970;2022-11-12T03:32:04;6.40;98.90
18781;DHT22;9519;51.890;8.970;2022-11-12T03:37:08;6.40;98.70
18781;DHT22;9519;51.890;8.970;2022-11-12T03:42:10;6.40;98.80
18781;DHT22;9519;51.890;8.970;2022-11-12T03:47:12;6.30;99.90
18781;DHT22;9519;51.890;8.970;2022-11-12T03:52:18;6.30;98.80
18781;DHT22;9519;51.890;8.970;2022-11-12T03:57:20;6.30;98.90
18781;DHT22;9519;51.890;8.970;2022-11-12T04:02:22;6.20;98.80
18781;DHT22;9519;51.890;8.970;2022-11-12T04:07:27;6.20;98.80
18781;DHT22;9519;51.890;8.970;2022-11-12T04:12:46;6.10;99.90
18781;DHT22;9519;51.890;8.970;2022-11-12T04:18:06;6.10;98.90
18781;DHT22;9519;51.890;8.970;2022-11-12T04:23:27;6.10;99.00
18781;DHT22;9519;51.890;8.970;2022-11-12T04:28:29;6.10;99.10
18781;DHT22;9519;51.890;8.970;2022-11-12T04:33:31;6.00;99.10
18781;DHT22;9519;51.890;8.970;2022-11-12T04:38:34;6.00;99.10
18781;DHT22;9519;51.890;8.970;2022-11-12T04:43:36;6.00;99.10
18781;DHT22;9519;51.890;8.970;2022-11-12T04:48:56;5.80;99.10
18781;DHT22;9519;51.890;8.970;2022-11-12T04:53:59;5.80;99.20
18781;DHT22;9519;51.890;8.970;2022-11-12T04:59:01;5.70;99.20
18781;DHT22;9519;51.890;8.970;2022-11-12T05:04:03;5.70;99.30
18781;DHT22;9519;51.890;8.970;2022-11-12T05:09:07;5.70;99.30
18781;DHT22;9519;51.890;8.970;2022-11-12T05:14:09;5.70;99.30
18781;DHT22;9519;51.890;8.970;2022-11-12T05:19:11;5.60;99.30
18781;DHT22;9519;51.890;8.970;2022-11-12T05:24:15;5.60;99.30
18781;DHT22;9519;51.890;8.970;2022-11-12T05:29:17;5.50;99.40
18781;DHT22;9519;51.890;8.970;2022-11-12T05:34:19;5.50;99.40
18781;DHT22;9519;51.890;8.970;2022-11-12T05:39:23;5.50;99.40
18781;DHT22;9519;51.890;8.970;2022-11-12T05:44:25;5.50;99.50
18781;DHT22;9519;51.890;8.970;2022-11-12T05:49:27;5.40;99.40
18781;DHT22;9519;51.890;8.970;2022-11-12T05:54:30;5.30;99.90
18781;DHT22;9519;51.890;8.970;2022-11-12T05:59:32;5.30;99.50
18781;DHT22;9519;51.890;8.970;2022-11-12T06:04:34;5.50;99.90
18781;DHT22;9519;51.890;8.970;2022-11-12T06:09:38;5.30;99.50
18781;DHT22;9519;51.890;8.970;2022-11-12T06:14:40;5.20;99.60
18781;DHT22;9519;51.890;8.970;2022-11-12T06:19:42;5.50;99.90
18781;DHT22;9519;51.890;8.970;2022-11-12T06:24:45;5.20;99.60
18781;DHT22;9519;51.890;8.970;2022-11-12T06:29:47;5.20;99.90
18781;DHT22;9519;51.890;8.970;2022-11-12T06:34:49;5.10;99.90
18781;DHT22;9519;51.890;8.970;2022-11-12T06:39:54;5.10;99.80
18781;DHT22;9519;51.890;8.970;2022-11-12T06:44:56;5.10;99.90
18781;DHT22;9519;51.890;8.970;2022-11-12T06:49:58;5.10;99.90
18781;DHT22;9519;51.890;8.970;2022-11-12T06:55:04;5.20;99.90
18781;DHT22;9519;51.890;8.970;2022-11-12T07:00:08;5.30;99.90
18781;DHT22;9519;51.890;8.970;2022-11-12T07:05:12;5.30;99.90
18781;DHT22;9519;51.890;8.970;2022-11-12T07:10:16;5.30;99.90
18781;DHT22;9519;51.890;8.970;2022-11-12T07:15:18;5.90;99.90
18781;DHT22;9519;51.890;8.970;2022-11-12T07:20:20;5.50;99.90
18781;DHT22;9519;51.890;8.970;2022-11-12T07:25:23;5.60;99.90
18781;DHT22;9519;51.890;8.970;2022-11-12T07:30:25;5.60;99.90
18781;DHT22;9519;51.890;8.970;2022-11-12T07:35:27;5.70;99.90
18781;DHT22;9519;51.890;8.970;2022-11-12T07:40:31;5.80;99.90
18781;DHT22;9519;51.890;8.970;2022-11-12T07:45:33;5.80;99.90
18781;DHT22;9519;51.890;8.970;2022-11-12T07:50:35;5.80;99.90
18781;DHT22;9519;51.890;8.970;2022-11-12T07:55:38;5.90;99.90
18781;DHT22;9519;51.890;8.970;2022-11-12T08:00:40;5.90;99.90
18781;DHT22;9519;51.890;8.970;2022-11-12T08:05:42;5.90;99.90
18781;DHT22;9519;51.890;8.970;2022-11-12T08:10:46;6.00;99.90
18781;DHT22;9519;51.890;8.970;2022-11-12T08:15:48;6.00;99.90
18781;DHT22;9519;51.890;8.970;2022-11-12T08:20:50;6.00;99.90
18781;DHT22;9519;51.890;8.970;2022-11-12T08:25:58;6.00;99.90
18781;DHT22;9519;51.890;8.970;2022-11-12T08:31:02;6.10;99.90
18781;DHT22;9519;51.890;8.970;2022-11-12T08:36:08;6.10;99.90
18781;DHT22;9519;51.890;8.970;2022-11-12T08:41:13;6.10;99.90
18781;DHT22;9519;51.890;8.970;2022-11-12T08:46:17;6.20;99.90
18781;DHT22;9519;51.890;8.970;2022-11-12T08:51:19;6.20;99.90
18781;DHT22;9519;51.890;8.970;2022-11-12T08:56:22;6.20;99.90
18781;DHT22;9519;51.890;8.970;2022-11-12T09:01:24;6.20;99.90
18781;DHT22;9519;51.890;8.970;2022-11-12T09:06:26;6.30;99.90
18781;DHT22;9519;51.890;8.970;2022-11-12T09:11:30;6.30;99.90
18781;DHT22;9519;51.890;8.970;2022-11-12T09:16:32;6.40;99.90
18781;DHT22;9519;51.890;8.970;2022-11-12T09:21:34;6.40;99.90
18781;DHT22;9519;51.890;8.970;2022-11-12T09:26:40;6.50;99.90
18781;DHT22;9519;51.890;8.970;2022-11-12T09:31:42;6.60;99.90
18781;DHT22;9519;51.890;8.970;2022-11-12T09:36:44;6.60;99.90
18781;DHT22;9519;51.890;8.970;2022-11-12T09:41:47;6.70;99.90
18781;DHT22;9519;51.890;8.970;2022-11-12T09:46:52;6.90;99.90
18781;DHT22;9519;51.890;8.970;2022-11-12T09:52:02;7.00;99.90
18781;DHT22;9519;51.890;8.970;2022-11-12T09:57:11;7.10;99.90
18781;DHT22;9519;51.890;8.970;2022-11-12T10:02:26;7.20;99.90
18781;DHT22;9519;51.890;8.970;2022-11-12T10:07:45;7.40;99.90
18781;DHT22;9519;51.890;8.970;2022-11-12T10:13:08;7.60;99.90
18781;DHT22;9519;51.890;8.970;2022-11-12T10:18:27;7.70;99.90
18781;DHT22;9519;51.890;8.970;2022-11-12T10:23:39;7.80;99.90
18781;DHT22;9519;51.890;8.970;2022-11-12T10:28:47;8.00;99.90
18781;DHT22;9519;51.890;8.970;2022-11-12T10:33:55;8.20;99.90
18781;DHT22;9519;51.890;8.970;2022-11-12T10:39:30;8.30;99.90
18781;DHT22;9519;51.890;8.970;2022-11-12T10:44:36;8.50;99.90
18781;DHT22;9519;51.890;8.970;2022-11-12T10:49:38;8.70;99.90
18781;DHT22;9519;51.890;8.970;2022-11-12T10:54:41;8.90;99.90
18781;DHT22;9519;51.890;8.970;2022-11-12T10:59:44;9.00;99.90
18781;DHT22;9519;51.890;8.970;2022-11-12T11:04:46;9.10;99.90
18781;DHT22;9519;51.890;8.970;2022-11-12T11:09:51;9.30;99.90
18781;DHT22;9519;51.890;8.970;2022-11-12T11:15:07;9.40;99.90
18781;DHT22;9519;51.890;8.970;2022-11-12T11:20:23;9.60;99.90
18781;DHT22;9519;51.890;8.970;2022-11-12T11:25:32;9.80;99.90
18781;DHT22;9519;51.890;8.970;2022-11-12T11:30:43;10.00;99.90
18781;DHT22;9519;51.890;8.970;2022-11-12T11:36:02;10.10;99.90
18781;DHT22;9519;51.890;8.970;2022-11-12T11:41:27;10.30;99.90
18781;DHT22;9519;51.890;8.970;2022-11-12T11:46:57;10.50;99.90
18781;DHT22;9519;51.890;8.970;2022-11-12T11:52:19;10.60;99.90
18781;DHT22;9519;51.890;8.970;2022-11-12T11:57:41;10.70;99.90
18781;DHT22;9519;51.890;8.970;2022-11-12T12:03:09;10.80;99.90
18781;DHT22;9519;51.890;8.970;2022-11-12T12:08:23;11.00;99.90
18781;DHT22;9519;51.890;8.970;2022-11-12T12:13:45;11.10;99.90
18781;DHT22;9519;51.890;8.970;2022-11-12T12:19:06;11.30;99.90
18781;DHT22;9519;51.890;8.970;2022-11-12T12:24:19;11.40;99.90
18781;DHT22;9519;51.890;8.970;2022-11-12T12:29:31;11.50;99.90
18781;DHT22;9519;51.890;8.970;2022-11-12T12:34:43;11.60;99.90
18781;DHT22;9519;51.890;8.970;2022-11-12T12:39:52;11.80;99.90
18781;DHT22;9519;51.890;8.970;2022-11-12T12:45:10;12.00;99.90
18781;DHT22;9519;51.890;8.970;2022-11-12T12:50:44;12.10;99.90
18781;DHT22;9519;51.890;8.970;2022-11-12T12:55:50;12.10;99.90
18781;DHT22;9519;51.890;8.970;2022-11-12T13:01:00;12.20;99.90
18781;DHT22;9519;51.890;8.970;2022-11-12T13:06:13;12.30;99.90
18781;DHT22;9519;51.890;8.970;2022-11-12T13:11:46;12.40;99.90
18781;DHT22;9519;51.890;8.970;2022-11-12T13:17:09;12.50;99.90
18781;DHT22;9519;51.890;8.970;2022-11-12T13:22:47;12.50;99.90
18781;DHT22;9519;51.890;8.970;2022-11-12T13:28:08;12.60;99.90
18781;DHT22;9519;51.890;8.970;2022-11-12T13:33:22;12.60;99.90
18781;DHT22;9519;51.890;8.970;2022-11-12T13:38:28;12.70;99.90
18781;DHT22;9519;51.890;8.970;2022-11-12T13:43:33;12.70;99.90
18781;DHT22;9519;51.890;8.970;2022-11-12T13:48:40;12.70;99.90
18781;DHT22;9519;51.890;8.970;2022-11-12T13:53:45;12.70;99.90
18781;DHT22;9519;51.890;8.970;2022-11-12T13:58:48;12.70;99.90
18781;DHT22;9519;51.890;8.970;2022-11-12T14:03:51;12.70;99.90
18781;DHT22;9519;51.890;8.970;2022-11-12T14:09:06;12.70;99.90
18781;DHT22;9519;51.890;8.970;2022-11-12T14:14:36;12.70;99.90
18781;DHT22;9519;51.890;8.970;2022-11-12T14:19:59;12.70;99.90
18781;DHT22;9519;51.890;8.970;2022-11-12T14:25:17;12.70;99.90
18781;DHT22;9519;51.890;8.970;2022-11-12T14:30:22;12.60;99.90
18781;DHT22;9519;51.890;8.970;2022-11-12T14:35:32;12.60;99.90
18781;DHT22;9519;51.890;8.970;2022-11-12T14:40:42;12.50;99.90
18781;DHT22;9519;51.890;8.970;2022-11-12T14:45:47;12.50;99.90
18781;DHT22;9519;51.890;8.970;2022-11-12T14:50:55;12.50;99.90
18781;DHT22;9519;51.890;8.970;2022-11-12T14:56:06;12.40;99.90
18781;DHT22;9519;51.890;8.970;2022-11-12T15:01:21;12.30;99.90
18781;DHT22;9519;51.890;8.970;2022-11-12T15:06:28;12.30;99.90
18781;DHT22;9519;51.890;8.970;2022-11-12T15:11:35;12.20;99.90
18781;DHT22;9519;51.890;8.970;2022-11-12T15:16:45;12.10;99.90
18781;DHT22;9519;51.890;8.970;2022-11-12T15:21:49;12.00;99.90
18781;DHT22;9519;51.890;8.970;2022-11-12T15:26:54;12.00;99.90
18781;DHT22;9519;51.890;8.970;2022-11-12T15:32:01;11.90;99.90
18781;DHT22;9519;51.890;8.970;2022-11-12T15:37:06;11.80;99.90
18781;DHT22;9519;51.890;8.970;2022-11-12T15:42:16;11.70;99.90
18781;DHT22;9519;51.890;8.970;2022-11-12T15:47:25;11.50;99.90
18781;DHT22;9519;51.890;8.970;2022-11-12T15:52:27;11.40;99.90
18781;DHT22;9519;51.890;8.970;2022-11-12T15:57:34;11.30;99.90
18781;DHT22;9519;51.890;8.970;2022-11-12T16:02:41;11.20;99.90
18781;DHT22;9519;51.890;8.970;2022-11-12T16:07:44;11.10;99.90
18781;DHT22;9519;51.890;8.970;2022-11-12T16:12:47;11.00;99.90
18781;DHT22;9519;51.890;8.970;2022-11-12T16:17:52;10.90;99.90
18781;DHT22;9519;51.890;8.970;2022-11-12T16:22:56;10.80;99.90
18781;DHT22;9519;51.890;8.970;2022-11-12T16:28:02;10.70;99.90
18781;DHT22;9519;51.890;8.970;2022-11-12T16:33:05;10.50;99.90
18781;DHT22;9519;51.890;8.970;2022-11-12T16:38:13;10.50;99.90
18781;DHT22;9519;51.890;8.970;2022-11-12T16:43:17;10.40;99.90
18781;DHT22;9519;51.890;8.970;2022-11-12T16:48:21;10.30;99.90
18781;DHT22;9519;51.890;8.970;2022-11-12T16:53:23;10.20;99.90
18781;DHT22;9519;51.890;8.970;2022-11-12T16:58:27;10.10;99.90
18781;DHT22;9519;51.890;8.970;2022-11-12T17:03:29;10.10;99.90
18781;DHT22;9519;51.890;8.970;2022-11-12T17:08:31;10.00;99.90
18781;DHT22;9519;51.890;8.970;2022-11-12T17:13:35;9.90;99.90
18781;DHT22;9519;51.890;8.970;2022-11-12T17:18:38;9.80;99.90
18781;DHT22;9519;51.890;8.970;2022-11-12T17:23:40;9.70;99.90
18781;DHT22;9519;51.890;8.970;2022-11-12T17:28:43;9.60;99.90
18781;DHT22;9519;51.890;8.970;2022-11-12T17:33:47;9.60;99.90
18781;DHT22;9519;51.890;8.970;2022-11-12T17:38:52;9.50;99.90
18781;DHT22;9519;51.890;8.970;2022-11-12T17:43:57;9.40;99.90
18781;DHT22;9519;51.890;8.970;2022-11-12T17:49:00;9.40;99.90
18781;DHT22;9519;51.890;8.970;2022-11-12T17:54:03;9.40;99.90
18781;DHT22;9519;51.890;8.970;2022-11-12T17:59:07;9.30;99.90
18781;DHT22;9519;51.890;8.970;2022-11-12T18:04:09;9.30;99.90
18781;DHT22;9519;51.890;8.970;2022-11-12T18:09:13;9.20;99.90
18781;DHT22;9519;51.890;8.970;2022-11-12T18:14:17;9.20;99.90
18781;DHT22;9519;51.890;8.970;2022-11-12T18:19:19;9.20;99.90
18781;DHT22;9519;51.890;8.970;2022-11-12T18:24:22;9.10;99.90
18781;DHT22;9519;51.890;8.970;2022-11-12T18:29:26;9.20;99.90
18781;DHT22;9519;51.890;8.970;2022-11-12T18:34:28;9.20;99.90
18781;DHT22;9519;51.890;8.970;2022-11-12T18:39:30;9.20;99.90
18781;DHT22;9519;51.890;8.970;2022-11-12T18:44:33;9.20;99.90
18781;DHT22;9519;51.890;8.970;2022-11-12T18:49:36;9.20;99.90
18781;DHT22;9519;51.890;8.970;2022-11-12T18:54:38;9.20;99.90
18781;DHT22;9519;51.890;8.970;2022-11-12T18:59:42;9.20;99.90
18781;DHT22;9519;51.890;8.970;2022-11-12T19:04:44;9.20;99.90
18781;DHT22;9519;51.890;8.970;2022-11-12T19:09:46;9.20;99.90
18781;DHT22;9519;51.890;8.970;2022-11-12T19:14:49;9.20;99.90
18781;DHT22;9519;51.890;8.970;2022-11-12T19:19:51;9.20;99.90
18781;DHT22;9519;51.890;8.970;2022-11-12T19:24:53;9.20;99.90
18781;DHT22;9519;51.890;8.970;2022-11-12T19:29:57;9.20;99.90
18781;DHT22;9519;51.890;8.970;2022-11-12T19:34:59;9.20;99.90
18781;DHT22;9519;51.890;8.970;2022-11-12T19:40:01;9.10;99.90
18781;DHT22;9519;51.890;8.970;2022-11-12T19:45:06;9.10;99.90
18781;DHT22;9519;51.890;8.970;2022-11-12T19:50:09;9.00;99.90
18781;DHT22;9519;51.890;8.970;2022-11-12T19:55:11;8.90;99.90
18781;DHT22;9519;51.890;8.970;2022-11-12T20:00:15;8.90;99.90
18781;DHT22;9519;51.890;8.970;2022-11-12T20:05:18;8.90;99.90
18781;DHT22;9519;51.890;8.970;2022-11-12T20:10:20;8.90;99.90
18781;DHT22;9519;51.890;8.970;2022-11-12T20:15:24;8.90;99.90
18781;DHT22;9519;51.890;8.970;2022-11-12T20:20:26;8.90;99.90
18781;DHT22;9519;51.890;8.970;2022-11-12T20:25:28;8.90;99.90
18781;DHT22;9519;51.890;8.970;2022-11-12T20:30:32;8.90;99.90
18781;DHT22;9519;51.890;8.970;2022-11-12T20:35:34;8.90;99.90
18781;DHT22;9519;51.890;8.970;2022-11-12T20:40:37;8.90;99.90
18781;DHT22;9519;51.890;8.970;2022-11-12T20:45:40;8.80;99.90
18781;DHT22;9519;51.890;8.970;2022-11-12T20:50:42;8.80;99.90
18781;DHT22;9519;51.890;8.970;2022-11-12T20:55:44;8.70;99.90
18781;DHT22;9519;51.890;8.970;2022-11-12T21:00:48;8.60;99.90
18781;DHT22;9519;51.890;8.970;2022-11-12T21:05:56;8.60;99.90
18781;DHT22;9519;51.890;8.970;2022-11-12T21:11:01;8.60;99.90
18781;DHT22;9519;51.890;8.970;2022-11-12T21:16:08;8.60;99.90
18781;DHT22;9519;51.890;8.970;2022-11-12T21:21:12;8.60;99.90
18781;DHT22;9519;51.890;8.970;2022-11-12T21:26:16;8.60;99.90
18781;DHT22;9519;51.890;8.970;2022-11-12T21:31:22;8.50;99.90
18781;DHT22;9519;51.890;8.970;2022-11-12T21:36:27;8.50;99.90
18781;DHT22;9519;51.890;8.970;2022-11-12T21:41:31;8.50;99.90
18781;DHT22;9519;51.890;8.970;2022-11-12T21:46:34;8.50;99.90
18781;DHT22;9519;51.890;8.970;2022-11-12T21:51:37;8.40;99.90
18781;DHT22;9519;51.890;8.970;2022-11-12T21:56:41;8.40;99.90
18781;DHT22;9519;51.890;8.970;2022-11-12T22:01:45;8.40;99.90
18781;DHT22;9519;51.890;8.970;2022-11-12T22:06:50;8.40;99.90
18781;DHT22;9519;51.890;8.970;2022-11-12T22:11:52;8.40;99.90
18781;DHT22;9519;51.890;8.970;2022-11-12T22:16:56;8.30;99.90
18781;DHT22;9519;51.890;8.970;2022-11-12T22:21:58;8.30;99.90
18781;DHT22;9519;51.890;8.970;2022-11-12T22:27:00;8.20;99.90
18781;DHT22;9519;51.890;8.970;2022-11-12T22:32:04;8.20;99.90
18781;DHT22;9519;51.890;8.970;2022-11-12T22:37:06;8.20;99.90
18781;DHT22;9519;51.890;8.970;2022-11-12T22:42:09;8.20;99.90
18781;DHT22;9519;51.890;8.970;2022-11-12T22:47:12;8.10;99.90
18781;DHT22;9519;51.890;8.970;2022-11-12T22:52:14;8.10;99.90
18781;DHT22;9519;51.890;8.970;2022-11-12T22:57:16;8.10;99.90
18781;DHT22;9519;51.890;8.970;2022-11-12T23:02:20;8.10;99.90
18781;DHT22;9519;51.890;8.970;2022-11-12T23:07:22;8.10;99.90
18781;DHT22;9519;51.890;8.970;2022-11-12T23:12:24;8.10;99.90
18781;DHT22;9519;51.890;8.970;2022-11-12T23:17:30;8.10;99.90
18781;DHT22;9519;51.890;8.970;2022-11-12T23:22:32;8.10;99.90
18781;DHT22;9519;51.890;8.970;2022-11-12T23:27:34;8.10;99.90
18781;DHT22;9519;51.890;8.970;2022-11-12T23:32:38;8.10;99.90
18781;DHT22;9519;51.890;8.970;2022-11-12T23:37:40;8.10;99.90
18781;DHT22;9519;51.890;8.970;2022-11-12T23:42:42;8.10;99.90
18781;DHT22;9519;51.890;8.970;2022-11-12T23:47:45;8.10;99.90
18781;DHT22;9519;51.890;8.970;2022-11-12T23:52:47;8.00;99.90
18781;DHT22;9519;51.890;8.970;2022-11-12T23:57:51;8.00;99.90
